Time;durP1;ratioP1;P1;durP2;ratioP2;P2;SDS_P1;SDS_P2;PMS_P1;PMS_P2;Temp;Humidity;BMP_temperature;BMP_pressure;BME280_temperature;BME280_humidity;BME280_pressure;Samples;Min_cycle;Max_cycle;Signal;HPM_P1;HPM_P2
2023/12/10 05:02:25;;;;;;;7.70;2.50;;;6.40;99.90;;;;;;5001117;23;20233;-73
2023/12/10 05:04:51;;;;;;;14.77;2.60;;;6.40;99.90;;;;;;4933117;29;20212;-73
2023/12/10 05:07:18;;;;;;;4.20;2.67;;;6.40;99.90;;;;;;4930139;29;20210;-73
2023/12/10 05:09:45;;;;;;;14.13;2.70;;;6.50;99.90;;;;;;4930306;29;20550;-73
2023/12/10 05:12:11;;;;;;;8.35;2.08;;;6.50;99.90;;;;;;4931996;29;20225;-73
2023/12/10 05:14:38;;;;;;;9.35;2.42;;;6.50;99.90;;;;;;4930911;29;20868;-73
2023/12/10 05:17:05;;;;;;;2.88;1.85;;;6.60;99.90;;;;;;4932983;29;20210;-72
2023/12/10 05:19:33;;;;;;;8.90;2.15;;;6.60;99.90;;;;;;4935758;29;20213;-73
2023/12/10 05:21:59;;;;;;;6.40;2.00;;;6.60;99.90;;;;;;4930395;29;20248;-73
2023/12/10 05:24:27;;;;;;;11.00;2.00;;;6.70;99.90;;;;;;4933176;29;20236;-73
2023/12/10 05:26:53;;;;;;;14.38;2.13;;;6.70;99.90;;;;;;4933427;29;20260;-74
2023/12/10 05:29:20;;;;;;;7.28;2.20;;;6.70;99.90;;;;;;4933589;29;20217;-74
2023/12/10 05:31:47;;;;;;;5.47;2.17;;;6.70;99.90;;;;;;4931828;29;20224;-73
2023/12/10 05:34:13;;;;;;;12.85;2.33;;;6.70;99.90;;;;;;4933457;29;20319;-73
2023/12/10 05:36:41;;;;;;;17.65;2.90;;;6.70;99.90;;;;;;4932691;29;20213;-73
2023/12/10 05:39:08;;;;;;;7.45;2.22;;;6.70;99.90;;;;;;4933648;29;20665;-73
2023/12/10 05:41:35;;;;;;;8.48;2.30;;;6.80;99.90;;;;;;4933350;29;20302;-73
2023/12/10 05:44:02;;;;;;;8.50;2.13;;;6.80;99.90;;;;;;4933833;29;20229;-73
2023/12/10 05:46:28;;;;;;;11.85;2.20;;;6.80;99.90;;;;;;4933401;29;20210;-73
2023/12/10 05:48:55;;;;;;;13.60;2.75;;;6.80;99.90;;;;;;4932145;29;20596;-73
2023/12/10 05:51:22;;;;;;;8.77;2.00;;;6.90;99.90;;;;;;4933431;29;20221;-73
2023/12/10 05:53:51;;;;;;;4.45;1.90;;;6.90;99.90;;;;;;4931880;29;20222;-73
2023/12/10 05:56:17;;;;;;;10.82;1.98;;;6.90;99.90;;;;;;4933231;29;20236;-73
2023/12/10 05:58:44;;;;;;;6.10;2.70;;;6.90;99.90;;;;;;4932545;29;20212;-73
2023/12/10 06:01:11;;;;;;;8.95;2.10;;;7.00;99.90;;;;;;4932313;29;20233;-73
2023/12/10 06:03:37;;;;;;;4.50;1.90;;;7.00;99.90;;;;;;4932115;29;20661;-73
2023/12/10 06:06:04;;;;;;;13.30;2.33;;;6.90;99.90;;;;;;4931091;29;20214;-73
2023/12/10 06:08:31;;;;;;;6.70;2.90;;;7.00;99.90;;;;;;4931560;29;20589;-73
2023/12/10 06:10:59;;;;;;;6.35;1.90;;;7.00;99.90;;;;;;4932974;29;20233;-73
2023/12/10 06:13:27;;;;;;;13.15;2.38;;;7.00;99.90;;;;;;4932929;29;20324;-74
2023/12/10 06:15:54;;;;;;;5.40;1.75;;;7.00;99.90;;;;;;4928990;29;20209;-74
2023/12/10 06:18:21;;;;;;;6.28;3.20;;;7.00;99.90;;;;;;4933481;29;20210;-73
2023/12/10 06:20:48;;;;;;;6.00;2.60;;;7.00;99.90;;;;;;4930797;29;20742;-73
2023/12/10 06:23:14;;;;;;;3.92;1.92;;;7.00;99.90;;;;;;4929469;29;20206;-73
2023/12/10 06:25:41;;;;;;;7.50;2.92;;;7.00;99.90;;;;;;4932263;29;20221;-73
2023/12/10 06:28:09;;;;;;;9.40;2.45;;;7.00;99.90;;;;;;4936300;29;20218;-73
2023/12/10 06:30:36;;;;;;;12.40;2.35;;;7.00;99.90;;;;;;4931778;29;20235;-73
2023/12/10 06:33:02;;;;;;;7.45;2.78;;;7.00;99.90;;;;;;4936486;29;20233;-73
2023/12/10 06:35:29;;;;;;;6.95;4.20;;;7.00;99.90;;;;;;4935420;29;20678;-73
2023/12/10 06:37:56;;;;;;;105.32;50.60;;;7.00;99.90;;;;;;4935481;29;20212;-73
2023/12/10 06:40:23;;;;;;;74.90;30.50;;;7.00;99.90;;;;;;4935797;29;20202;-73
2023/12/10 06:42:50;;;;;;;32.72;16.85;;;7.00;99.90;;;;;;4934488;29;20210;-73
2023/12/10 06:45:19;;;;;;;19.85;11.32;;;7.00;99.90;;;;;;4933646;29;20220;-73
2023/12/10 06:47:46;;;;;;;35.92;15.00;;;7.10;99.90;;;;;;4934692;29;20210;-73
2023/12/10 06:50:13;;;;;;;43.45;17.23;;;7.10;99.90;;;;;;4932864;29;20210;-73
2023/12/10 06:52:39;;;;;;;44.25;17.45;;;7.00;99.90;;;;;;4935404;29;20217;-73
2023/12/10 06:55:07;;;;;;;76.63;35.45;;;7.10;99.90;;;;;;4935197;29;20608;-73
2023/12/10 06:57:33;;;;;;;57.10;23.77;;;7.10;99.90;;;;;;4934257;29;20826;-73
2023/12/10 07:00:00;;;;;;;22.63;11.80;;;7.10;99.90;;;;;;4935340;29;20293;-73
2023/12/10 07:02:28;;;;;;;13.80;9.63;;;7.10;99.90;;;;;;4932248;29;20234;-73
2023/12/10 07:04:55;;;;;;;19.35;13.18;;;7.00;99.90;;;;;;4934691;29;20220;-73
2023/12/10 07:07:22;;;;;;;7.13;5.10;;;7.10;99.90;;;;;;4933549;29;20210;-73
2023/12/10 07:09:49;;;;;;;6.60;4.90;;;7.10;99.90;;;;;;4935336;29;20209;-73
2023/12/10 07:12:15;;;;;;;7.82;7.13;;;7.10;99.90;;;;;;4934377;29;20225;-73
2023/12/10 07:14:42;;;;;;;4.75;3.30;;;7.00;99.90;;;;;;4933999;29;20284;-73
2023/12/10 07:17:09;;;;;;;5.40;4.90;;;7.10;99.90;;;;;;4931720;29;20208;-74
2023/12/10 07:19:37;;;;;;;5.93;4.55;;;7.10;99.90;;;;;;4935219;29;20218;-73
2023/12/10 07:22:04;;;;;;;7.07;3.88;;;7.10;99.90;;;;;;4930500;29;20244;-73
2023/12/10 07:24:31;;;;;;;6.35;4.03;;;7.10;99.90;;;;;;4934690;29;20210;-73
2023/12/10 07:26:58;;;;;;;7.43;4.05;;;7.10;99.90;;;;;;4934575;29;20636;-73
2023/12/10 07:29:26;;;;;;;3.05;1.90;;;7.10;99.90;;;;;;4934237;29;20220;-73
2023/12/10 07:31:52;;;;;;;3.95;3.75;;;7.10;99.90;;;;;;4934541;29;20351;-73
2023/12/10 07:34:20;;;;;;;4.95;2.95;;;7.10;99.90;;;;;;4933516;29;20236;-73
2023/12/10 07:36:48;;;;;;;9.43;3.03;;;7.10;99.90;;;;;;4932507;29;20213;-72
2023/12/10 07:39:14;;;;;;;2.28;2.10;;;7.10;99.90;;;;;;4931906;29;20210;-75
2023/12/10 07:41:41;;;;;;;6.95;3.08;;;7.10;99.90;;;;;;4932460;29;20244;-74
2023/12/10 07:44:08;;;;;;;1.58;1.50;;;7.10;99.90;;;;;;4933738;29;20202;-75
2023/12/10 07:46:35;;;;;;;4.40;2.10;;;7.10;99.90;;;;;;4935056;29;20676;-74
2023/12/10 07:49:01;;;;;;;4.05;1.35;;;7.10;99.90;;;;;;4927800;29;20214;-75
2023/12/10 07:51:28;;;;;;;3.65;1.65;;;7.10;99.90;;;;;;4934654;29;20260;-74
2023/12/10 07:53:56;;;;;;;3.22;1.38;;;7.10;99.90;;;;;;4927068;29;20238;-74
2023/12/10 07:56:23;;;;;;;2.58;1.45;;;7.10;99.90;;;;;;4933465;29;20217;-74
2023/12/10 07:58:49;;;;;;;2.05;1.50;;;7.10;99.90;;;;;;4932917;29;20221;-73
2023/12/10 08:01:16;;;;;;;3.00;2.40;;;7.10;99.90;;;;;;4931970;29;20253;-72
2023/12/10 08:03:43;;;;;;;6.00;1.90;;;7.10;99.90;;;;;;4929787;29;21318;-72
2023/12/10 08:06:10;;;;;;;1.52;1.30;;;7.10;99.90;;;;;;4934059;29;20206;-72
2023/12/10 08:08:36;;;;;;;3.53;1.80;;;7.10;99.90;;;;;;4932666;29;20218;-72
2023/12/10 08:11:05;;;;;;;2.17;1.90;;;7.10;99.90;;;;;;4933589;29;20233;-72
2023/12/10 08:13:32;;;;;;;4.03;3.65;;;7.10;99.90;;;;;;4934136;29;20218;-72
2023/12/10 08:15:59;;;;;;;4.55;2.35;;;7.10;99.90;;;;;;4930911;29;20581;-74
2023/12/10 08:18:25;;;;;;;4.45;3.17;;;7.20;99.90;;;;;;4932289;29;20218;-72
2023/12/10 08:20:52;;;;;;;2.80;2.53;;;7.10;99.90;;;;;;4933746;29;20237;-72
2023/12/10 08:23:19;;;;;;;2.85;2.05;;;7.20;99.90;;;;;;4930862;29;20205;-73
2023/12/10 08:25:46;;;;;;;12.35;4.70;;;7.20;99.90;;;;;;4931414;29;20213;-72
2023/12/10 08:28:14;;;;;;;3.17;2.95;;;7.20;99.90;;;;;;4932914;29;20210;-73
2023/12/10 08:30:40;;;;;;;8.10;6.35;;;7.20;99.90;;;;;;4932455;29;20226;-73
2023/12/10 08:33:07;;;;;;;6.15;3.55;;;7.20;99.90;;;;;;4933297;29;20691;-73
2023/12/10 08:35:34;;;;;;;6.57;2.67;;;7.20;99.90;;;;;;4927738;29;20238;-73
2023/12/10 08:38:01;;;;;;;1.73;1.55;;;7.20;99.90;;;;;;4926828;29;20209;-73
2023/12/10 08:40:27;;;;;;;3.15;2.50;;;7.20;99.90;;;;;;4932322;29;20218;-73
2023/12/10 08:42:54;;;;;;;1.55;1.55;;;7.20;99.90;;;;;;4932551;29;20231;-73
2023/12/10 08:45:23;;;;;;;3.30;2.67;;;7.20;99.90;;;;;;4931244;29;20206;-72
2023/12/10 08:47:49;;;;;;;5.75;4.75;;;7.20;99.90;;;;;;4933671;29;20213;-73
2023/12/10 08:50:16;;;;;;;9.40;5.40;;;7.20;99.90;;;;;;4931524;29;20225;-73
2023/12/10 08:52:43;;;;;;;8.68;5.00;;;7.20;99.90;;;;;;4932045;29;20300;-73
2023/12/10 08:55:10;;;;;;;4.53;4.10;;;7.20;99.90;;;;;;4932089;29;20233;-73
2023/12/10 08:57:36;;;;;;;5.75;4.80;;;7.20;99.90;;;;;;4928794;29;20284;-73
2023/12/10 09:00:04;;;;;;;10.05;7.15;;;7.20;99.90;;;;;;4929684;29;20206;-73
2023/12/10 09:02:32;;;;;;;10.80;6.95;;;7.20;99.90;;;;;;4927522;29;20241;-73
2023/12/10 09:04:59;;;;;;;9.90;6.88;;;7.20;99.90;;;;;;4929840;29;20204;-72
2023/12/10 09:07:26;;;;;;;16.25;8.70;;;7.20;99.90;;;;;;4933031;29;20228;-72
2023/12/10 09:09:54;;;;;;;2.47;2.38;;;7.20;99.90;;;;;;4931630;29;20209;-72
2023/12/10 09:12:20;;;;;;;5.97;4.57;;;7.20;99.90;;;;;;4931219;29;20233;-72
2023/12/10 09:14:47;;;;;;;10.85;7.40;;;7.20;99.90;;;;;;4931628;29;20700;-72
2023/12/10 09:17:14;;;;;;;8.85;4.43;;;7.20;99.90;;;;;;4930456;29;20206;-72
2023/12/10 09:19:42;;;;;;;10.70;8.25;;;7.20;99.90;;;;;;4926854;29;20217;-72
2023/12/10 09:22:08;;;;;;;4.25;3.95;;;7.30;99.90;;;;;;4928847;29;20229;-72
2023/12/10 09:24:35;;;;;;;8.48;5.15;;;7.30;99.90;;;;;;4926952;29;20290;-72
2023/12/10 09:27:02;;;;;;;4.68;4.30;;;7.30;99.90;;;;;;4929073;29;20218;-74
2023/12/10 09:29:28;;;;;;;6.93;5.15;;;7.30;99.90;;;;;;4931069;29;20208;-72
2023/12/10 09:31:55;;;;;;;7.30;6.15;;;7.30;99.90;;;;;;4931099;29;20229;-72
2023/12/10 09:34:22;;;;;;;6.78;5.00;;;7.30;99.90;;;;;;4931431;29;20233;-72
2023/12/10 09:36:50;;;;;;;15.82;9.02;;;7.30;99.90;;;;;;4928122;29;20210;-72
2023/12/10 09:39:17;;;;;;;12.10;5.95;;;7.30;99.90;;;;;;4932528;29;20202;-72
2023/12/10 09:41:44;;;;;;;6.78;5.07;;;7.30;99.90;;;;;;4931851;29;20239;-72
2023/12/10 09:44:11;;;;;;;8.85;5.30;;;7.40;99.90;;;;;;4931264;29;20212;-72
2023/12/10 09:46:39;;;;;;;10.30;5.78;;;7.40;99.90;;;;;;4929817;29;20301;-72
2023/12/10 09:49:06;;;;;;;7.65;6.00;;;7.40;99.90;;;;;;4930391;29;20678;-73
2023/12/10 09:51:33;;;;;;;8.82;5.22;;;7.40;99.90;;;;;;4930813;29;20241;-71
2023/12/10 09:54:01;;;;;;;7.32;5.80;;;7.40;99.90;;;;;;4933211;29;20570;-72
2023/12/10 09:56:27;;;;;;;7.55;4.90;;;7.50;99.90;;;;;;4930678;29;20217;-72
2023/12/10 09:58:54;;;;;;;1.38;1.27;;;7.50;99.90;;;;;;4931895;29;20305;-73
2023/12/10 10:01:21;;;;;;;3.40;3.10;;;7.50;99.90;;;;;;4931011;29;20245;-73
2023/12/10 10:03:47;;;;;;;7.05;4.22;;;7.50;99.90;;;;;;4930496;29;20560;-73
2023/12/10 10:06:14;;;;;;;3.60;3.17;;;7.60;99.90;;;;;;4929336;29;20225;-72
2023/12/10 10:08:41;;;;;;;0.82;0.82;;;7.60;99.90;;;;;;4935331;29;20209;-72
2023/12/10 10:11:09;;;;;;;2.45;2.25;;;7.60;99.90;;;;;;4935655;29;20226;-72
2023/12/10 10:13:35;;;;;;;4.40;2.67;;;7.60;99.90;;;;;;4935467;29;20612;-72
2023/12/10 10:16:12;;;;;;;2.35;2.25;;;7.70;99.90;;;;;;4934225;29;20228;-72
2023/12/10 10:18:41;;;;;;;2.33;2.33;;;7.70;99.90;;;;;;4934820;29;20216;-72
2023/12/10 10:21:08;;;;;;;1.00;1.00;;;7.70;99.90;;;;;;4930466;29;20581;-73
2023/12/10 10:23:35;;;;;;;4.88;3.80;;;7.70;99.90;;;;;;4932641;29;20205;-72
2023/12/10 10:26:02;;;;;;;3.42;3.20;;;7.70;99.90;;;;;;4926982;29;20213;-72
2023/12/10 10:28:30;;;;;;;1.33;1.23;;;7.70;99.90;;;;;;4932001;29;20660;-71
2023/12/10 10:30:58;;;;;;;0.85;0.73;;;7.70;99.90;;;;;;4935247;29;20230;-72
2023/12/10 10:33:26;;;;;;;4.50;1.73;;;7.70;99.90;;;;;;4933545;29;20217;-71
2023/12/10 10:35:53;;;;;;;1.10;1.10;;;7.80;99.90;;;;;;4934889;29;20238;-73
2023/12/10 10:38:20;;;;;;;0.70;0.70;;;7.80;99.90;;;;;;4929077;29;20305;-72
2023/12/10 10:40:48;;;;;;;2.38;2.28;;;7.80;99.90;;;;;;4932616;29;20317;-72
2023/12/10 10:43:14;;;;;;;5.00;3.70;;;7.80;99.90;;;;;;4934223;29;20570;-72
2023/12/10 10:45:43;;;;;;;1.20;1.20;;;7.80;99.90;;;;;;4933562;29;20206;-73
2023/12/10 10:48:10;;;;;;;4.00;2.22;;;7.90;99.90;;;;;;4931048;29;20237;-73
2023/12/10 10:50:39;;;;;;;1.60;1.45;;;7.80;99.90;;;;;;4935744;29;20234;-72
2023/12/10 10:53:06;;;;;;;0.80;0.80;;;7.90;99.90;;;;;;4930511;29;20217;-72
2023/12/10 10:55:33;;;;;;;0.98;0.95;;;7.90;99.90;;;;;;4925908;29;20239;-72
2023/12/10 10:58:24;;;;;;;0.93;0.93;;;7.90;99.90;;;;;;4932027;29;20401;-73
2023/12/10 11:00:52;;;;;;;1.63;1.63;;;7.90;99.90;;;;;;4929536;29;20245;-72
2023/12/10 11:03:19;;;;;;;0.50;0.50;;;7.80;99.90;;;;;;4936059;29;20233;-72
2023/12/10 11:05:45;;;;;;;1.75;1.00;;;7.90;99.90;;;;;;4935574;29;20218;-73
2023/12/10 11:08:12;;;;;;;1.08;1.05;;;7.90;99.90;;;;;;4935455;29;20561;-73
2023/12/10 11:10:43;;;;;;;1.23;1.10;;;7.90;99.90;;;;;;4934935;29;20738;-73
2023/12/10 11:13:10;;;;;;;1.42;1.42;;;7.90;99.90;;;;;;4930231;29;20593;-73
2023/12/10 11:15:36;;;;;;;1.50;1.50;;;7.90;99.90;;;;;;4931890;29;20239;-73
2023/12/10 11:18:05;;;;;;;1.67;0.85;;;7.90;99.90;;;;;;4932708;29;20237;-73
2023/12/10 11:20:34;;;;;;;0.90;0.90;;;8.00;99.90;;;;;;4929960;29;20225;-73
2023/12/10 11:23:02;;;;;;;4.75;3.80;;;8.00;99.90;;;;;;4927686;29;20209;-73
2023/12/10 11:25:29;;;;;;;1.70;1.35;;;8.00;99.90;;;;;;4935242;29;20257;-73
2023/12/10 11:27:57;;;;;;;1.33;1.02;;;8.00;99.90;;;;;;4934091;29;20233;-73
2023/12/10 11:30:24;;;;;;;3.70;0.90;;;8.00;99.90;;;;;;4932542;29;20206;-73
2023/12/10 11:32:50;;;;;;;0.80;0.80;;;8.00;99.90;;;;;;4932816;29;20225;-73
2023/12/10 11:35:18;;;;;;;0.95;0.95;;;8.10;99.90;;;;;;4933693;29;20317;-72
2023/12/10 11:37:45;;;;;;;1.15;0.80;;;8.10;99.90;;;;;;4933182;29;20218;-71
2023/12/10 11:40:12;;;;;;;3.63;0.70;;;8.20;99.90;;;;;;4933289;29;20210;-71
2023/12/10 11:42:39;;;;;;;1.17;0.98;;;8.20;99.90;;;;;;4929894;29;20218;-72
2023/12/10 11:45:07;;;;;;;0.40;0.40;;;8.20;99.90;;;;;;4933587;29;20206;-73
2023/12/10 11:47:35;;;;;;;1.35;1.10;;;8.20;99.90;;;;;;4934599;29;20293;-73
2023/12/10 11:50:04;;;;;;;1.00;0.90;;;8.20;99.90;;;;;;4928838;29;20702;-73
2023/12/10 11:52:32;;;;;;;0.90;0.90;;;8.20;99.90;;;;;;4933424;29;20229;-71
2023/12/10 11:54:59;;;;;;;2.28;1.02;;;8.20;99.90;;;;;;4927238;29;20704;-72
2023/12/10 11:57:26;;;;;;;1.58;1.50;;;8.20;99.90;;;;;;4934534;29;20265;-71
2023/12/10 11:59:53;;;;;;;1.27;1.27;;;8.20;99.90;;;;;;4932028;29;20214;-72
2023/12/10 12:02:20;;;;;;;1.40;1.27;;;8.20;99.90;;;;;;4927480;29;20309;-71
2023/12/10 12:04:46;;;;;;;0.82;0.82;;;8.20;99.90;;;;;;4927175;29;20222;-70
2023/12/10 12:07:26;;;;;;;2.45;1.45;;;8.30;99.90;;;;;;4926416;29;20285;-71
2023/12/10 12:09:54;;;;;;;1.58;1.58;;;8.30;99.90;;;;;;4930863;29;20218;-71
2023/12/10 12:12:22;;;;;;;4.25;2.28;;;8.30;99.90;;;;;;4931061;29;20252;-71
2023/12/10 12:14:49;;;;;;;2.25;1.58;;;8.30;99.90;;;;;;4932010;29;20261;-70
2023/12/10 12:17:16;;;;;;;7.20;3.05;;;8.30;99.90;;;;;;4928661;29;20229;-72
2023/12/10 12:19:43;;;;;;;3.65;2.10;;;8.30;99.90;;;;;;4932246;29;20210;-71
2023/12/10 12:22:10;;;;;;;4.00;1.73;;;8.30;99.90;;;;;;4931508;29;20249;-71
2023/12/10 12:24:38;;;;;;;5.18;2.90;;;8.30;99.90;;;;;;4931256;29;20277;-71
2023/12/10 12:27:07;;;;;;;3.00;1.88;;;8.30;99.90;;;;;;4928127;29;20213;-72
2023/12/10 12:29:34;;;;;;;2.65;2.55;;;8.40;99.90;;;;;;4925795;29;20214;-72
2023/12/10 12:32:02;;;;;;;4.43;2.20;;;8.30;99.90;;;;;;4929603;29;20248;-71
2023/12/10 12:34:29;;;;;;;2.60;2.30;;;8.40;99.90;;;;;;4926753;29;21089;-71
2023/12/10 12:36:55;;;;;;;1.75;1.75;;;8.40;99.90;;;;;;4932456;29;20677;-72
2023/12/10 12:39:22;;;;;;;5.68;2.38;;;8.40;99.90;;;;;;4930780;29;20587;-71
2023/12/10 12:41:49;;;;;;;2.28;2.28;;;8.40;99.90;;;;;;4931014;29;20743;-71
2023/12/10 12:44:17;;;;;;;2.47;2.25;;;8.40;99.90;;;;;;4933118;29;20208;-72
2023/12/10 12:46:44;;;;;;;3.20;2.22;;;8.40;99.90;;;;;;4932619;29;20213;-72
2023/12/10 12:49:11;;;;;;;4.07;2.45;;;8.50;99.90;;;;;;4932657;29;20207;-71
2023/12/10 12:51:38;;;;;;;3.83;2.25;;;8.50;99.90;;;;;;4931838;29;20233;-71
2023/12/10 12:54:05;;;;;;;2.92;2.65;;;8.40;99.90;;;;;;4930666;29;20694;-71
2023/12/10 12:56:32;;;;;;;2.38;1.58;;;8.50;99.90;;;;;;4928192;29;20226;-71
2023/12/10 12:58:58;;;;;;;2.63;2.17;;;8.50;99.90;;;;;;4931426;29;20214;-71
2023/12/10 13:01:27;;;;;;;2.35;2.25;;;8.50;99.90;;;;;;4931982;29;20261;-72
2023/12/10 13:03:53;;;;;;;2.15;2.00;;;8.50;99.90;;;;;;4930694;29;20221;-72
2023/12/10 13:06:20;;;;;;;1.48;1.27;;;8.50;99.90;;;;;;4929545;29;20281;-72
2023/12/10 13:08:47;;;;;;;1.25;0.82;;;8.50;99.90;;;;;;4928424;29;20225;-72
2023/12/10 13:11:14;;;;;;;1.63;1.52;;;8.50;99.90;;;;;;4924573;29;20229;-71
2023/12/10 13:13:41;;;;;;;2.17;2.08;;;8.50;99.90;;;;;;4929865;29;20217;-71
2023/12/10 13:16:08;;;;;;;2.60;2.40;;;8.60;99.90;;;;;;4917612;29;20229;-71
2023/12/10 13:18:36;;;;;;;1.75;0.95;;;8.50;99.90;;;;;;4928007;29;20210;-71
2023/12/10 13:21:04;;;;;;;2.05;1.73;;;8.50;99.90;;;;;;4924074;29;20240;-70
2023/12/10 13:23:30;;;;;;;2.38;1.05;;;8.50;99.90;;;;;;4930518;29;20206;-71
2023/12/10 13:25:57;;;;;;;1.25;1.25;;;8.50;99.90;;;;;;4929685;29;20689;-72
2023/12/10 13:28:24;;;;;;;1.80;1.70;;;8.50;99.90;;;;;;4930556;29;20202;-72
2023/12/10 13:30:50;;;;;;;1.80;1.70;;;8.50;99.90;;;;;;4929190;29;20244;-72
2023/12/10 13:33:17;;;;;;;3.05;1.20;;;8.40;99.90;;;;;;4931658;29;20633;-72
2023/12/10 13:35:45;;;;;;;1.85;1.75;;;8.40;99.90;;;;;;4932482;29;20226;-72
2023/12/10 13:38:12;;;;;;;4.20;3.05;;;8.40;99.90;;;;;;4937570;29;21603;-72
2023/12/10 13:40:39;;;;;;;3.85;3.03;;;8.40;99.90;;;;;;4935476;29;20252;-72
2023/12/10 13:43:05;;;;;;;11.15;6.40;;;8.40;99.90;;;;;;4934874;29;20218;-73
2023/12/10 13:45:32;;;;;;;8.98;3.60;;;8.40;99.90;;;;;;4933600;29;20232;-73
2023/12/10 13:48:00;;;;;;;13.35;5.32;;;8.40;99.90;;;;;;4934639;29;20253;-73
2023/12/10 13:50:26;;;;;;;13.95;4.30;;;8.40;99.90;;;;;;4936804;29;20218;-73
2023/12/10 13:52:55;;;;;;;0.60;0.60;;;8.40;99.90;;;;;;4937115;29;20222;-73
2023/12/10 13:55:21;;;;;;;1.88;1.40;;;8.40;99.90;;;;;;4935234;29;20210;-73
2023/12/10 13:57:48;;;;;;;3.92;1.42;;;8.40;99.90;;;;;;4936921;29;20206;-73
2023/12/10 14:00:15;;;;;;;6.00;3.20;;;8.40;99.90;;;;;;4934191;29;20226;-73
2023/12/10 14:02:42;;;;;;;5.78;2.45;;;8.40;99.90;;;;;;4933110;29;20228;-72
2023/12/10 14:05:11;;;;;;;3.33;1.75;;;8.40;99.90;;;;;;4935442;29;20210;-74
2023/12/10 14:07:38;;;;;;;2.35;2.10;;;8.40;99.90;;;;;;4938094;29;20631;-73
2023/12/10 14:10:07;;;;;;;3.75;2.45;;;8.40;99.90;;;;;;4932714;29;20225;-73
2023/12/10 14:12:34;;;;;;;8.43;2.63;;;8.40;99.90;;;;;;4935403;29;20292;-73
2023/12/10 14:15:00;;;;;;;2.78;1.80;;;8.40;99.90;;;;;;4930541;29;20217;-73
2023/12/10 14:17:27;;;;;;;1.40;1.40;;;8.40;99.90;;;;;;4934245;29;20237;-73
2023/12/10 14:19:54;;;;;;;4.53;3.17;;;8.40;99.90;;;;;;4929100;29;20483;-72
2023/12/10 14:22:21;;;;;;;1.85;1.60;;;8.40;99.90;;;;;;4933966;29;20669;-72
2023/12/10 14:24:48;;;;;;;1.50;1.50;;;8.40;99.90;;;;;;4932403;29;21621;-72
2023/12/10 14:27:15;;;;;;;1.77;1.55;;;8.40;99.90;;;;;;4931887;29;20202;-72
2023/12/10 14:29:42;;;;;;;1.65;1.00;;;8.40;99.90;;;;;;4934282;29;20241;-73
2023/12/10 14:32:09;;;;;;;2.08;2.08;;;8.40;99.90;;;;;;4933260;29;20241;-71
2023/12/10 14:34:36;;;;;;;2.70;1.90;;;8.40;99.90;;;;;;4930744;29;20790;-71
2023/12/10 14:37:03;;;;;;;2.15;1.70;;;8.40;99.90;;;;;;4932235;29;20244;-71
2023/12/10 14:39:34;;;;;;;3.15;1.35;;;8.30;99.90;;;;;;4935273;29;20227;-72
2023/12/10 14:42:01;;;;;;;5.53;3.90;;;8.30;99.90;;;;;;4929242;29;20624;-72
2023/12/10 14:44:29;;;;;;;3.13;1.65;;;8.30;99.90;;;;;;4930007;29;20206;-72
2023/12/10 14:46:57;;;;;;;1.83;1.58;;;8.30;99.90;;;;;;4933512;29;20592;-73
2023/12/10 14:49:24;;;;;;;1.60;1.60;;;8.30;99.90;;;;;;4933969;29;20221;-73
2023/12/10 14:51:50;;;;;;;2.15;2.08;;;8.30;99.90;;;;;;4934514;29;20229;-73
2023/12/10 14:54:17;;;;;;;2.20;2.10;;;8.30;99.90;;;;;;4931889;29;20210;-72
2023/12/10 14:56:46;;;;;;;3.85;1.95;;;8.30;99.90;;;;;;4933784;29;20238;-74
2023/12/10 14:59:12;;;;;;;1.25;1.15;;;8.20;99.90;;;;;;4932905;29;20206;-74
2023/12/10 15:01:41;;;;;;;2.30;2.10;;;8.20;99.90;;;;;;4931187;29;20246;-74
2023/12/10 15:04:08;;;;;;;1.85;1.75;;;8.20;99.90;;;;;;4932998;29;20305;-73
2023/12/10 15:06:34;;;;;;;3.25;2.47;;;8.20;99.90;;;;;;4933083;29;20204;-74
2023/12/10 15:09:02;;;;;;;1.80;1.70;;;8.20;99.90;;;;;;4934332;29;20242;-75
2023/12/10 15:11:29;;;;;;;1.70;1.30;;;8.20;99.90;;;;;;4932668;29;20227;-75
2023/12/10 15:13:56;;;;;;;2.35;1.88;;;8.20;99.90;;;;;;4933603;29;20221;-76
2023/12/10 15:16:23;;;;;;;4.68;4.28;;;8.20;99.90;;;;;;4933472;29;20313;-75
2023/12/10 15:18:51;;;;;;;3.20;1.55;;;8.20;99.90;;;;;;4932832;29;20273;-75
2023/12/10 15:21:18;;;;;;;2.22;1.13;;;8.20;99.90;;;;;;4933475;29;20237;-74
2023/12/10 15:23:44;;;;;;;1.25;0.60;;;8.20;99.90;;;;;;4932980;29;20213;-75
2023/12/10 15:26:11;;;;;;;12.38;8.57;;;8.10;99.90;;;;;;4932304;29;20213;-75
2023/12/10 15:28:38;;;;;;;1.95;0.85;;;8.20;99.90;;;;;;4927883;29;20214;-75
2023/12/10 15:31:05;;;;;;;0.80;0.80;;;8.20;99.90;;;;;;4925243;29;20237;-74
2023/12/10 15:33:32;;;;;;;1.95;1.02;;;8.20;99.90;;;;;;4933956;29;20262;-75
2023/12/10 15:36:00;;;;;;;2.08;1.80;;;8.20;99.90;;;;;;4933309;29;20237;-75
2023/12/10 15:38:26;;;;;;;3.15;1.67;;;8.10;99.90;;;;;;4930767;29;20220;-73
2023/12/10 15:40:53;;;;;;;1.27;1.27;;;8.10;99.90;;;;;;4930347;29;20755;-73
2023/12/10 15:43:20;;;;;;;2.40;2.10;;;8.10;99.90;;;;;;4934359;29;20241;-74
2023/12/10 15:45:46;;;;;;;1.85;1.75;;;8.10;99.90;;;;;;4931889;29;20210;-74
2023/12/10 15:48:13;;;;;;;2.47;2.15;;;8.10;99.90;;;;;;4933840;29;20206;-73
2023/12/10 15:50:40;;;;;;;3.50;1.65;;;8.10;99.90;;;;;;4934398;29;20226;-75
2023/12/10 15:53:08;;;;;;;4.95;4.00;;;8.00;99.90;;;;;;4934174;29;20221;-74
2023/12/10 15:55:34;;;;;;;6.30;2.55;;;8.00;99.90;;;;;;4929866;29;20205;-74
2023/12/10 15:58:01;;;;;;;2.00;1.90;;;8.00;99.90;;;;;;4931664;29;20605;-74
2023/12/10 16:00:28;;;;;;;2.75;2.45;;;8.00;99.90;;;;;;4930829;29;20210;-74
2023/12/10 16:02:55;;;;;;;5.10;2.22;;;8.00;99.90;;;;;;4930538;29;20217;-74
2023/12/10 16:05:22;;;;;;;7.95;3.67;;;8.00;99.90;;;;;;4931998;29;20301;-74
2023/12/10 16:07:50;;;;;;;2.42;2.22;;;8.00;99.90;;;;;;4929173;29;20594;-73
2023/12/10 16:10:18;;;;;;;5.10;2.85;;;8.00;99.90;;;;;;4929169;29;20297;-74
2023/12/10 16:12:45;;;;;;;4.13;2.85;;;8.00;99.90;;;;;;4928805;29;20269;-75
2023/12/10 16:15:13;;;;;;;5.78;3.60;;;7.90;99.90;;;;;;4929312;29;20301;-74
2023/12/10 16:17:40;;;;;;;6.22;2.92;;;7.90;99.90;;;;;;4933030;29;20583;-74
2023/12/10 16:20:08;;;;;;;6.00;4.05;;;7.90;99.90;;;;;;4932102;29;20291;-74
2023/12/10 16:22:35;;;;;;;5.72;4.07;;;7.90;99.90;;;;;;4928091;29;20303;-73
2023/12/10 16:25:02;;;;;;;3.10;2.80;;;7.90;99.90;;;;;;4928282;29;20232;-74
2023/12/10 16:27:30;;;;;;;2.80;2.67;;;7.90;99.90;;;;;;4930817;29;20210;-74
2023/12/10 16:29:56;;;;;;;3.40;3.10;;;7.90;99.90;;;;;;4931091;29;20320;-74
2023/12/10 16:32:23;;;;;;;4.50;3.30;;;7.80;99.90;;;;;;4929831;29;20229;-74
2023/12/10 16:34:50;;;;;;;4.35;2.60;;;7.80;99.90;;;;;;4931982;29;20296;-73
2023/12/10 16:37:17;;;;;;;7.00;2.65;;;7.80;99.90;;;;;;4931464;29;20252;-73
2023/12/10 16:39:43;;;;;;;7.80;3.35;;;7.80;99.90;;;;;;4931581;29;20220;-74
2023/12/10 16:42:09;;;;;;;6.57;2.20;;;7.80;99.90;;;;;;4928736;29;20230;-73
2023/12/10 16:44:37;;;;;;;4.27;3.10;;;7.80;99.90;;;;;;4932630;29;20205;-74
2023/12/10 16:47:04;;;;;;;6.43;3.65;;;7.80;99.90;;;;;;4928824;29;20214;-74
2023/12/10 16:49:31;;;;;;;4.05;2.85;;;7.70;99.90;;;;;;4929642;29;20210;-73
2023/12/10 16:51:58;;;;;;;20.05;6.88;;;7.70;99.90;;;;;;4931866;29;20325;-74
2023/12/10 16:54:25;;;;;;;2.05;1.95;;;7.70;99.90;;;;;;4929677;29;20225;-73
2023/12/10 16:56:51;;;;;;;6.38;3.10;;;7.70;99.90;;;;;;4927353;29;20225;-73
2023/12/10 16:59:18;;;;;;;4.90;2.50;;;7.70;99.90;;;;;;4931003;29;20676;-72
2023/12/10 17:01:46;;;;;;;3.10;2.85;;;7.70;99.90;;;;;;4927455;29;20254;-73
2023/12/10 17:04:13;;;;;;;4.15;2.15;;;7.70;99.90;;;;;;4923067;29;20607;-74
2023/12/10 17:06:40;;;;;;;3.30;3.08;;;7.70;99.90;;;;;;4929209;29;20222;-73
2023/12/10 17:09:07;;;;;;;3.70;3.13;;;7.60;99.90;;;;;;4930650;29;20210;-74
2023/12/10 17:11:33;;;;;;;7.43;3.60;;;7.60;99.90;;;;;;4930182;29;20233;-73
2023/12/10 17:14:00;;;;;;;8.02;4.32;;;7.60;99.90;;;;;;4931704;29;20210;-72
2023/12/10 17:16:27;;;;;;;9.55;4.30;;;7.70;99.90;;;;;;4930974;29;20233;-74
2023/12/10 17:18:55;;;;;;;5.63;2.50;;;7.60;99.90;;;;;;4928936;29;20210;-74
2023/12/10 17:21:21;;;;;;;6.40;3.55;;;7.60;99.90;;;;;;4930285;29;20240;-73
2023/12/10 17:23:49;;;;;;;11.80;3.05;;;7.60;99.90;;;;;;4929973;29;20314;-73
2023/12/10 17:26:15;;;;;;;5.53;2.47;;;7.70;99.90;;;;;;4925624;29;24123;-74
2023/12/10 17:28:42;;;;;;;8.75;3.35;;;7.60;99.90;;;;;;4931036;29;20210;-73
2023/12/10 17:31:10;;;;;;;5.30;3.53;;;7.60;99.90;;;;;;4931210;29;20731;-73
2023/12/10 17:33:36;;;;;;;7.22;3.17;;;7.60;99.90;;;;;;4931115;29;20349;-73
2023/12/10 17:36:05;;;;;;;6.22;3.58;;;7.60;99.90;;;;;;4930133;29;20282;-72
2023/12/10 17:38:32;;;;;;;3.20;2.85;;;7.60;99.90;;;;;;4926087;29;20316;-73
2023/12/10 17:40:58;;;;;;;7.72;3.70;;;7.50;99.90;;;;;;4931519;29;20252;-73
2023/12/10 17:43:26;;;;;;;8.38;3.60;;;7.50;99.90;;;;;;4930009;29;20206;-72
2023/12/10 17:45:53;;;;;;;8.35;3.97;;;7.50;99.90;;;;;;4930821;29;20666;-74
2023/12/10 17:48:20;;;;;;;11.68;3.15;;;7.50;99.90;;;;;;4931372;29;20202;-73
2023/12/10 17:50:46;;;;;;;8.10;3.30;;;7.50;99.90;;;;;;4932379;29;20261;-75
2023/12/10 17:53:14;;;;;;;6.32;5.00;;;7.50;99.90;;;;;;4931405;29;20217;-73
2023/12/10 17:55:41;;;;;;;9.10;4.43;;;7.50;99.90;;;;;;4931281;29;22037;-73